Airport View

Enter AWOS ICAO identifier for current METAR.

ex. KFNL

KCOS 031454Z 11008KT 10SM FEW170 21/11 A3028 RMK AO2 SLP159 T02110106 53015

3 Jul 2020 15:58

Frequency: 125.000

Phone: 719-637-9696

Other Area AWOS: KFCS - KFLY - KAFF - KMNH

TAF KCOS 031143Z 0312/0412 36005KT P6SM FEW120 FEW200 FM031600 09007KT P6SM SCT100 FM031800 12010G20KT P6SM VCTS SCT050CB SCT100 FM032000 16010G20KT P6SM VCTS SCT050CB BKN100 TEMPO 0320/0322 5SM -TSRA BKN050CB FM040300 34012KT P6SM BKN100 FM040800 03005KT P6SM BKN250